Jacksonville Naval Air Station Jacksonville US
ICAO: KNIP
IATA: NIP
Category: Medium
Scheduled Services: No

Elevation: 21 ft
TransAlt. 18000 ft.

Airport Communications:
APP/DEP:123.8
ATIS:28.1
CLNC DEL:134.775
GND:128.6
ATCOM:672.3
NAVY JAX OPS:31.02
PMSV METRO:34.35
TWR:120

KNIP Zoom In..

Runways:

(A) RW 10 length 8002 ft width 200 ft
---- / hdg 95

(B) RW 14 length 5980 ft width 200 ft
---- / hdg 141

(C) RW 28 length 8002 ft width 200 ft
---- / hdg 275

(D) RW 32 length 5980 ft width 200 ft
---- / hdg 321

Location; KNIP
Day. 23 / Time. 09.53 Zulu
* Altimeter: 29.79
* Temperature: 23° c. 73.4°f.
* Wind from: 220° Speed 06 kn.
Dewpoint: 21° c.
Visibility: 10 Statute Miles.
Clouds: Few 4000 ft.
Clouds: Overcast 25000 ft.

KNIP 230953Z 22006KT 10SM FEW040 OVC250 23/21 A2979 RMK AO2 SLP082 T02280206


Wind From 220°
Speed 06 kn.

 
 
jpsmedia.com for Web Design worldairports.se 2018   terms of use